<?xml version="1.0" encoding="UTF-8" standalone="no" ?>
<gpx xmlns="http://www.topografix.com/GPX/1/1" xmlns:xsi="http://www.w3.org/2001/XMLSchema-instance" xsi:schemaLocation="http://www.topografix.com/GPX/1/1 http://www.topografix.com/GPX/1/1/gpx.xsd" version="1.1" creator="VisuGPX - https://www.visugpx.com">
  <metadata>
    <name>ThouarsaisBouildroux_Chataigniers_20km</name>
    <desc><![CDATA[gnerando idor:8031757]]></desc>
  </metadata>
  <trk>
    <name><![CDATA[ThouarsaisBouildroux_Chataigniers_20.1km-8031757]]></name>
    <extensions>
      <line xmlns="http://www.topografix.com/GPX/gpx_style/0/2">
        <color>0000FF</color>
        <width>4</width>
      </line>
    </extensions>
    <trkseg>
      <trkpt lat="46.61776" lon="-0.87952">
        <ele>84</ele>
        <time>2023-11-14T05:25:26Z</time>
      </trkpt>
      <trkpt lat="46.61757" lon="-0.87777">
        <ele>83</ele>
        <time>2023-11-14T05:28:08Z</time>
      </trkpt>
      <trkpt lat="46.6171" lon="-0.87727">
        <ele>80</ele>
        <time>2023-11-14T05:29:26Z</time>
      </trkpt>
      <trkpt lat="46.61742" lon="-0.8769">
        <ele>80</ele>
        <time>2023-11-14T05:30:21Z</time>
      </trkpt>
      <trkpt lat="46.61613" lon="-0.86989">
        <ele>82</ele>
        <time>2023-11-14T05:41:26Z</time>
      </trkpt>
      <trkpt lat="46.61616" lon="-0.87003">
        <ele>82</ele>
        <time>2023-11-14T05:41:39Z</time>
      </trkpt>
      <trkpt lat="46.61682" lon="-0.87039">
        <ele>81</ele>
        <time>2023-11-14T05:43:13Z</time>
      </trkpt>
      <trkpt lat="46.61726" lon="-0.87126">
        <ele>81</ele>
        <time>2023-11-14T05:44:52Z</time>
      </trkpt>
      <trkpt lat="46.61893" lon="-0.87021">
        <ele>84</ele>
        <time>2023-11-14T05:48:55Z</time>
      </trkpt>
      <trkpt lat="46.61918" lon="-0.87168">
        <ele>80</ele>
        <time>2023-11-14T05:51:14Z</time>
      </trkpt>
      <trkpt lat="46.6217" lon="-0.87553">
        <ele>75</ele>
        <time>2023-11-14T05:59:21Z</time>
      </trkpt>
      <trkpt lat="46.6222" lon="-0.87589">
        <ele>73</ele>
        <time>2023-11-14T06:00:36Z</time>
      </trkpt>
      <trkpt lat="46.62277" lon="-0.87557">
        <ele>73</ele>
        <time>2023-11-14T06:01:57Z</time>
      </trkpt>
      <trkpt lat="46.62368" lon="-0.87718">
        <ele>76</ele>
        <time>2023-11-14T06:05:08Z</time>
      </trkpt>
      <trkpt lat="46.62485" lon="-0.87942">
        <ele>75</ele>
        <time>2023-11-14T06:09:26Z</time>
      </trkpt>
      <trkpt lat="46.62444" lon="-0.88053">
        <ele>72</ele>
        <time>2023-11-14T06:11:22Z</time>
      </trkpt>
      <trkpt lat="46.62466" lon="-0.88121">
        <ele>70</ele>
        <time>2023-11-14T06:12:31Z</time>
      </trkpt>
      <trkpt lat="46.62293" lon="-0.8824">
        <ele>69</ele>
        <time>2023-11-14T06:16:46Z</time>
      </trkpt>
      <trkpt lat="46.61981" lon="-0.88639">
        <ele>81</ele>
        <time>2023-11-14T06:26:00Z</time>
      </trkpt>
      <trkpt lat="46.6199" lon="-0.8869">
        <ele>82</ele>
        <time>2023-11-14T06:26:48Z</time>
      </trkpt>
      <trkpt lat="46.61924" lon="-0.88717">
        <ele>82</ele>
        <time>2023-11-14T06:28:20Z</time>
      </trkpt>
      <trkpt lat="46.62104" lon="-0.89543">
        <ele>73</ele>
        <time>2023-11-14T06:41:34Z</time>
      </trkpt>
      <trkpt lat="46.62145" lon="-0.89533">
        <ele>72</ele>
        <time>2023-11-14T06:42:30Z</time>
      </trkpt>
      <trkpt lat="46.62167" lon="-0.89657">
        <ele>73</ele>
        <time>2023-11-14T06:44:27Z</time>
      </trkpt>
      <trkpt lat="46.62261" lon="-0.89795">
        <ele>72</ele>
        <time>2023-11-14T06:47:25Z</time>
      </trkpt>
      <trkpt lat="46.62353" lon="-0.89964">
        <ele>70</ele>
        <time>2023-11-14T06:50:43Z</time>
      </trkpt>
      <trkpt lat="46.62179" lon="-0.90221">
        <ele>75</ele>
        <time>2023-11-14T06:56:14Z</time>
      </trkpt>
      <trkpt lat="46.62132" lon="-0.90198">
        <ele>76</ele>
        <time>2023-11-14T06:57:20Z</time>
      </trkpt>
      <trkpt lat="46.62075" lon="-0.90294">
        <ele>76</ele>
        <time>2023-11-14T06:59:16Z</time>
      </trkpt>
      <trkpt lat="46.62009" lon="-0.90294">
        <ele>79</ele>
        <time>2023-11-14T07:00:44Z</time>
      </trkpt>
      <trkpt lat="46.61909" lon="-0.90189">
        <ele>82</ele>
        <time>2023-11-14T07:03:29Z</time>
      </trkpt>
      <trkpt lat="46.61613" lon="-0.90363">
        <ele>102</ele>
        <time>2023-11-14T07:10:35Z</time>
      </trkpt>
      <trkpt lat="46.61603" lon="-0.90533">
        <ele>106</ele>
        <time>2023-11-14T07:13:11Z</time>
      </trkpt>
      <trkpt lat="46.61625" lon="-0.90831">
        <ele>98</ele>
        <time>2023-11-14T07:17:46Z</time>
      </trkpt>
      <trkpt lat="46.61433" lon="-0.90721">
        <ele>114</ele>
        <time>2023-11-14T07:22:21Z</time>
      </trkpt>
      <trkpt lat="46.61379" lon="-0.90537">
        <ele>122</ele>
        <time>2023-11-14T07:25:25Z</time>
      </trkpt>
      <trkpt lat="46.6126" lon="-0.90404">
        <ele>124</ele>
        <time>2023-11-14T07:28:45Z</time>
      </trkpt>
      <trkpt lat="46.61471" lon="-0.9012">
        <ele>111</ele>
        <time>2023-11-14T07:35:08Z</time>
      </trkpt>
      <trkpt lat="46.61339" lon="-0.8996">
        <ele>103</ele>
        <time>2023-11-14T07:38:57Z</time>
      </trkpt>
      <trkpt lat="46.61219" lon="-0.90253">
        <ele>119</ele>
        <time>2023-11-14T07:44:10Z</time>
      </trkpt>
      <trkpt lat="46.61124" lon="-0.90336">
        <ele>125</ele>
        <time>2023-11-14T07:46:38Z</time>
      </trkpt>
      <trkpt lat="46.6109" lon="-0.90478">
        <ele>127</ele>
        <time>2023-11-14T07:48:56Z</time>
      </trkpt>
      <trkpt lat="46.61061" lon="-0.9056">
        <ele>126</ele>
        <time>2023-11-14T07:50:20Z</time>
      </trkpt>
      <trkpt lat="46.60998" lon="-0.90602">
        <ele>124</ele>
        <time>2023-11-14T07:51:53Z</time>
      </trkpt>
      <trkpt lat="46.61008" lon="-0.90872">
        <ele>123</ele>
        <time>2023-11-14T07:56:01Z</time>
      </trkpt>
      <trkpt lat="46.60825" lon="-0.91037">
        <ele>120</ele>
        <time>2023-11-14T08:00:48Z</time>
      </trkpt>
      <trkpt lat="46.60704" lon="-0.91189">
        <ele>119</ele>
        <time>2023-11-14T08:04:21Z</time>
      </trkpt>
      <trkpt lat="46.60681" lon="-0.91305">
        <ele>119</ele>
        <time>2023-11-14T08:06:12Z</time>
      </trkpt>
      <trkpt lat="46.6051" lon="-0.91428">
        <ele>117</ele>
        <time>2023-11-14T08:10:26Z</time>
      </trkpt>
      <trkpt lat="46.60478" lon="-0.92053">
        <ele>124</ele>
        <time>2023-11-14T08:20:01Z</time>
      </trkpt>
      <trkpt lat="46.60254" lon="-0.91954">
        <ele>120</ele>
        <time>2023-11-14T08:25:13Z</time>
      </trkpt>
      <trkpt lat="46.60119" lon="-0.92002">
        <ele>118</ele>
        <time>2023-11-14T08:28:19Z</time>
      </trkpt>
      <trkpt lat="46.6003" lon="-0.91963">
        <ele>117</ele>
        <time>2023-11-14T08:30:23Z</time>
      </trkpt>
      <trkpt lat="46.59942" lon="-0.91967">
        <ele>115</ele>
        <time>2023-11-14T08:32:20Z</time>
      </trkpt>
      <trkpt lat="46.5983" lon="-0.92057">
        <ele>114</ele>
        <time>2023-11-14T08:35:11Z</time>
      </trkpt>
      <trkpt lat="46.59703" lon="-0.92075">
        <ele>111</ele>
        <time>2023-11-14T08:38:01Z</time>
      </trkpt>
      <trkpt lat="46.59659" lon="-0.91924">
        <ele>111</ele>
        <time>2023-11-14T08:40:32Z</time>
      </trkpt>
      <trkpt lat="46.59783" lon="-0.91834">
        <ele>112</ele>
        <time>2023-11-14T08:43:37Z</time>
      </trkpt>
      <trkpt lat="46.59892" lon="-0.91826">
        <ele>114</ele>
        <time>2023-11-14T08:46:02Z</time>
      </trkpt>
      <trkpt lat="46.59945" lon="-0.91701">
        <ele>116</ele>
        <time>2023-11-14T08:48:17Z</time>
      </trkpt>
      <trkpt lat="46.60098" lon="-0.91581">
        <ele>118</ele>
        <time>2023-11-14T08:52:09Z</time>
      </trkpt>
      <trkpt lat="46.60206" lon="-0.91406">
        <ele>115</ele>
        <time>2023-11-14T08:55:45Z</time>
      </trkpt>
      <trkpt lat="46.59943" lon="-0.91427">
        <ele>114</ele>
        <time>2023-11-14T09:01:36Z</time>
      </trkpt>
      <trkpt lat="46.59788" lon="-0.91364">
        <ele>116</ele>
        <time>2023-11-14T09:05:11Z</time>
      </trkpt>
      <trkpt lat="46.59667" lon="-0.91406">
        <ele>119</ele>
        <time>2023-11-14T09:07:57Z</time>
      </trkpt>
      <trkpt lat="46.59599" lon="-0.91358">
        <ele>114</ele>
        <time>2023-11-14T09:09:38Z</time>
      </trkpt>
      <trkpt lat="46.59181" lon="-0.91285">
        <ele>111</ele>
        <time>2023-11-14T09:19:00Z</time>
      </trkpt>
      <trkpt lat="46.59352" lon="-0.91032">
        <ele>111</ele>
        <time>2023-11-14T09:24:25Z</time>
      </trkpt>
      <trkpt lat="46.59494" lon="-0.90487">
        <ele>111</ele>
        <time>2023-11-14T09:33:20Z</time>
      </trkpt>
      <trkpt lat="46.59429" lon="-0.90324">
        <ele>106</ele>
        <time>2023-11-14T09:36:12Z</time>
      </trkpt>
      <trkpt lat="46.59482" lon="-0.90255">
        <ele>110</ele>
        <time>2023-11-14T09:37:47Z</time>
      </trkpt>
      <trkpt lat="46.59582" lon="-0.90053">
        <ele>107</ele>
        <time>2023-11-14T09:41:36Z</time>
      </trkpt>
      <trkpt lat="46.59641" lon="-0.90036">
        <ele>111</ele>
        <time>2023-11-14T09:42:56Z</time>
      </trkpt>
      <trkpt lat="46.59715" lon="-0.89976">
        <ele>111</ele>
        <time>2023-11-14T09:44:49Z</time>
      </trkpt>
      <trkpt lat="46.59744" lon="-0.89912">
        <ele>109</ele>
        <time>2023-11-14T09:45:59Z</time>
      </trkpt>
      <trkpt lat="46.59915" lon="-0.89882">
        <ele>110</ele>
        <time>2023-11-14T09:49:49Z</time>
      </trkpt>
      <trkpt lat="46.59992" lon="-0.90028">
        <ele>111</ele>
        <time>2023-11-14T09:52:38Z</time>
      </trkpt>
      <trkpt lat="46.60039" lon="-0.90229">
        <ele>117</ele>
        <time>2023-11-14T09:55:52Z</time>
      </trkpt>
      <trkpt lat="46.60381" lon="-0.90281">
        <ele>123</ele>
        <time>2023-11-14T10:03:31Z</time>
      </trkpt>
      <trkpt lat="46.60305" lon="-0.89896">
        <ele>114</ele>
        <time>2023-11-14T10:09:39Z</time>
      </trkpt>
      <trkpt lat="46.60494" lon="-0.89772">
        <ele>121</ele>
        <time>2023-11-14T10:14:15Z</time>
      </trkpt>
      <trkpt lat="46.60425" lon="-0.89524">
        <ele>117</ele>
        <time>2023-11-14T10:18:20Z</time>
      </trkpt>
      <trkpt lat="46.60498" lon="-0.8946">
        <ele>121</ele>
        <time>2023-11-14T10:20:14Z</time>
      </trkpt>
      <trkpt lat="46.60532" lon="-0.89529">
        <ele>121</ele>
        <time>2023-11-14T10:21:32Z</time>
      </trkpt>
      <trkpt lat="46.60532" lon="-0.8957">
        <ele>120</ele>
        <time>2023-11-14T10:22:10Z</time>
      </trkpt>
      <trkpt lat="46.60576" lon="-0.89767">
        <ele>122</ele>
        <time>2023-11-14T10:25:20Z</time>
      </trkpt>
      <trkpt lat="46.60636" lon="-0.899">
        <ele>123</ele>
        <time>2023-11-14T10:27:45Z</time>
      </trkpt>
      <trkpt lat="46.60778" lon="-0.89836">
        <ele>126</ele>
        <time>2023-11-14T10:31:04Z</time>
      </trkpt>
      <trkpt lat="46.60731" lon="-0.8957">
        <ele>121</ele>
        <time>2023-11-14T10:35:16Z</time>
      </trkpt>
      <trkpt lat="46.60731" lon="-0.89552">
        <ele>122</ele>
        <time>2023-11-14T10:35:32Z</time>
      </trkpt>
      <trkpt lat="46.60718" lon="-0.89529">
        <ele>122</ele>
        <time>2023-11-14T10:35:59Z</time>
      </trkpt>
      <trkpt lat="46.60652" lon="-0.89387">
        <ele>125</ele>
        <time>2023-11-14T10:38:37Z</time>
      </trkpt>
      <trkpt lat="46.60759" lon="-0.89245">
        <ele>117</ele>
        <time>2023-11-14T10:41:50Z</time>
      </trkpt>
      <trkpt lat="46.60901" lon="-0.89029">
        <ele>107</ele>
        <time>2023-11-14T10:46:24Z</time>
      </trkpt>
      <trkpt lat="46.60948" lon="-0.88983">
        <ele>103</ele>
        <time>2023-11-14T10:47:39Z</time>
      </trkpt>
      <trkpt lat="46.60998" lon="-0.89171">
        <ele>101</ele>
        <time>2023-11-14T10:50:44Z</time>
      </trkpt>
      <trkpt lat="46.60907" lon="-0.89419">
        <ele>106</ele>
        <time>2023-11-14T10:55:02Z</time>
      </trkpt>
      <trkpt lat="46.60992" lon="-0.89575">
        <ele>112</ele>
        <time>2023-11-14T10:58:05Z</time>
      </trkpt>
      <trkpt lat="46.61024" lon="-0.89666">
        <ele>114</ele>
        <time>2023-11-14T10:59:38Z</time>
      </trkpt>
      <trkpt lat="46.61187" lon="-0.89538">
        <ele>108</ele>
        <time>2023-11-14T11:03:45Z</time>
      </trkpt>
      <trkpt lat="46.61272" lon="-0.89808">
        <ele>102</ele>
        <time>2023-11-14T11:08:18Z</time>
      </trkpt>
      <trkpt lat="46.61578" lon="-0.8952">
        <ele>82</ele>
        <time>2023-11-14T11:16:24Z</time>
      </trkpt>
      <trkpt lat="46.61468" lon="-0.89148">
        <ele>82</ele>
        <time>2023-11-14T11:22:35Z</time>
      </trkpt>
      <trkpt lat="46.61244" lon="-0.89428">
        <ele>103</ele>
        <time>2023-11-14T11:29:09Z</time>
      </trkpt>
      <trkpt lat="46.61168" lon="-0.89171">
        <ele>95</ele>
        <time>2023-11-14T11:33:26Z</time>
      </trkpt>
      <trkpt lat="46.61175" lon="-0.89052">
        <ele>93</ele>
        <time>2023-11-14T11:35:15Z</time>
      </trkpt>
      <trkpt lat="46.61131" lon="-0.88768">
        <ele>94</ele>
        <time>2023-11-14T11:39:42Z</time>
      </trkpt>
      <trkpt lat="46.61257" lon="-0.88708">
        <ele>85</ele>
        <time>2023-11-14T11:42:39Z</time>
      </trkpt>
      <trkpt lat="46.61083" lon="-0.8836">
        <ele>86</ele>
        <time>2023-11-14T11:49:14Z</time>
      </trkpt>
      <trkpt lat="46.61087" lon="-0.88323">
        <ele>86</ele>
        <time>2023-11-14T11:49:48Z</time>
      </trkpt>
      <trkpt lat="46.61087" lon="-0.88277">
        <ele>87</ele>
        <time>2023-11-14T11:50:30Z</time>
      </trkpt>
      <trkpt lat="46.61077" lon="-0.88213">
        <ele>89</ele>
        <time>2023-11-14T11:51:30Z</time>
      </trkpt>
      <trkpt lat="46.61792" lon="-0.87956">
        <ele>84</ele>
        <time>2023-11-14T12:07:53Z</time>
      </trkpt>
    </trkseg>
  </trk>
</gpx>